sensor_id;sensor_type;location;lat;lon;timestamp;P1;durP1;ratioP1;P2;durP2;ratioP2
81154;SDS011;70631;50.436;7.826;2024-03-07T00:01:27;22.38;;;10.95;;
81154;SDS011;70631;50.436;7.826;2024-03-07T00:06:18;22.47;;;10.07;;
81154;SDS011;70631;50.436;7.826;2024-03-07T00:11:08;21.73;;;9.73;;
81154;SDS011;70631;50.436;7.826;2024-03-07T00:15:59;22.40;;;11.45;;
81154;SDS011;70631;50.436;7.826;2024-03-07T00:20:50;27.27;;;11.03;;
81154;SDS011;70631;50.436;7.826;2024-03-07T00:25:41;20.38;;;9.55;;
81154;SDS011;70631;50.436;7.826;2024-03-07T00:30:32;22.07;;;9.37;;
81154;SDS011;70631;50.436;7.826;2024-03-07T00:32:58;23.15;;;9.88;;
81154;SDS011;70631;50.436;7.826;2024-03-07T00:35:24;21.48;;;9.32;;
81154;SDS011;70631;50.436;7.826;2024-03-07T00:37:50;27.27;;;11.30;;
81154;SDS011;70631;50.436;7.826;2024-03-07T00:42:40;25.03;;;10.93;;
81154;SDS011;70631;50.436;7.826;2024-03-07T00:47:31;27.27;;;11.23;;
81154;SDS011;70631;50.436;7.826;2024-03-07T00:49:59;21.23;;;10.43;;
81154;SDS011;70631;50.436;7.826;2024-03-07T00:52:25;23.73;;;10.95;;
81154;SDS011;70631;50.436;7.826;2024-03-07T00:54:50;25.27;;;10.37;;
81154;SDS011;70631;50.436;7.826;2024-03-07T00:59:41;22.47;;;8.90;;
81154;SDS011;70631;50.436;7.826;2024-03-07T01:04:32;21.40;;;10.00;;
81154;SDS011;70631;50.436;7.826;2024-03-07T01:06:58;29.27;;;11.43;;
81154;SDS011;70631;50.436;7.826;2024-03-07T01:09:24;27.95;;;11.70;;
81154;SDS011;70631;50.436;7.826;2024-03-07T01:14:14;27.43;;;11.17;;
81154;SDS011;70631;50.436;7.826;2024-03-07T01:19:05;21.55;;;9.88;;
81154;SDS011;70631;50.436;7.826;2024-03-07T01:23:57;24.65;;;11.70;;
81154;SDS011;70631;50.436;7.826;2024-03-07T01:26:24;31.00;;;11.73;;
81154;SDS011;70631;50.436;7.826;2024-03-07T01:28:49;28.05;;;12.68;;
81154;SDS011;70631;50.436;7.826;2024-03-07T01:31:14;22.67;;;11.67;;
81154;SDS011;70631;50.436;7.826;2024-03-07T01:36:05;26.80;;;11.60;;
81154;SDS011;70631;50.436;7.826;2024-03-07T01:40:56;22.50;;;10.93;;
81154;SDS011;70631;50.436;7.826;2024-03-07T01:45:46;28.60;;;11.00;;
81154;SDS011;70631;50.436;7.826;2024-03-07T01:50:42;25.98;;;10.93;;
81154;SDS011;70631;50.436;7.826;2024-03-07T01:55:34;27.15;;;11.40;;
81154;SDS011;70631;50.436;7.826;2024-03-07T01:58:02;25.73;;;11.55;;
81154;SDS011;70631;50.436;7.826;2024-03-07T02:00:29;24.10;;;12.10;;
81154;SDS011;70631;50.436;7.826;2024-03-07T02:02:55;30.25;;;11.77;;
81154;SDS011;70631;50.436;7.826;2024-03-07T02:07:46;23.67;;;11.40;;
81154;SDS011;70631;50.436;7.826;2024-03-07T02:10:12;30.13;;;12.57;;
81154;SDS011;70631;50.436;7.826;2024-03-07T02:15:02;27.87;;;11.77;;
81154;SDS011;70631;50.436;7.826;2024-03-07T02:19:53;22.38;;;10.55;;
81154;SDS011;70631;50.436;7.826;2024-03-07T02:22:19;26.27;;;12.13;;
81154;SDS011;70631;50.436;7.826;2024-03-07T02:24:45;27.33;;;11.15;;
81154;SDS011;70631;50.436;7.826;2024-03-07T02:27:11;27.95;;;11.95;;
81154;SDS011;70631;50.436;7.826;2024-03-07T02:29:42;20.83;;;10.13;;
81154;SDS011;70631;50.436;7.826;2024-03-07T02:32:08;24.10;;;11.23;;
81154;SDS011;70631;50.436;7.826;2024-03-07T02:34:34;24.17;;;12.75;;
81154;SDS011;70631;50.436;7.826;2024-03-07T02:37:00;28.65;;;12.15;;
81154;SDS011;70631;50.436;7.826;2024-03-07T02:39:25;23.87;;;11.63;;
81154;SDS011;70631;50.436;7.826;2024-03-07T02:44:16;23.63;;;10.50;;
81154;SDS011;70631;50.436;7.826;2024-03-07T02:46:42;27.00;;;11.45;;
81154;SDS011;70631;50.436;7.826;2024-03-07T02:51:33;21.57;;;10.90;;
81154;SDS011;70631;50.436;7.826;2024-03-07T02:56:23;21.10;;;9.50;;
81154;SDS011;70631;50.436;7.826;2024-03-07T02:58:50;24.27;;;10.40;;
81154;SDS011;70631;50.436;7.826;2024-03-07T03:01:16;30.00;;;10.88;;
81154;SDS011;70631;50.436;7.826;2024-03-07T03:03:41;23.70;;;11.27;;
81154;SDS011;70631;50.436;7.826;2024-03-07T03:08:33;30.70;;;11.60;;
81154;SDS011;70631;50.436;7.826;2024-03-07T03:10:59;27.92;;;12.32;;
81154;SDS011;70631;50.436;7.826;2024-03-07T03:15:52;26.77;;;11.18;;
81154;SDS011;70631;50.436;7.826;2024-03-07T03:18:18;26.52;;;11.18;;
81154;SDS011;70631;50.436;7.826;2024-03-07T03:23:13;24.52;;;10.25;;
81154;SDS011;70631;50.436;7.826;2024-03-07T03:28:04;29.75;;;11.30;;
81154;SDS011;70631;50.436;7.826;2024-03-07T03:30:30;24.92;;;10.80;;
81154;SDS011;70631;50.436;7.826;2024-03-07T03:32:55;26.92;;;12.07;;
81154;SDS011;70631;50.436;7.826;2024-03-07T03:37:46;19.87;;;10.13;;
81154;SDS011;70631;50.436;7.826;2024-03-07T03:42:38;25.95;;;10.90;;
81154;SDS011;70631;50.436;7.826;2024-03-07T03:45:04;24.45;;;11.27;;
81154;SDS011;70631;50.436;7.826;2024-03-07T03:47:50;28.50;;;11.27;;
81154;SDS011;70631;50.436;7.826;2024-03-07T03:52:41;28.27;;;11.90;;
81154;SDS011;70631;50.436;7.826;2024-03-07T03:57:32;24.20;;;10.75;;
81154;SDS011;70631;50.436;7.826;2024-03-07T04:02:24;22.27;;;10.45;;
81154;SDS011;70631;50.436;7.826;2024-03-07T04:07:16;22.90;;;10.70;;
81154;SDS011;70631;50.436;7.826;2024-03-07T04:09:42;27.67;;;11.80;;
81154;SDS011;70631;50.436;7.826;2024-03-07T04:14:39;26.48;;;11.40;;
81154;SDS011;70631;50.436;7.826;2024-03-07T04:17:06;27.38;;;11.50;;
81154;SDS011;70631;50.436;7.826;2024-03-07T04:19:33;27.20;;;10.85;;
81154;SDS011;70631;50.436;7.826;2024-03-07T04:22:01;23.95;;;10.88;;
81154;SDS011;70631;50.436;7.826;2024-03-07T04:24:29;24.70;;;10.77;;
81154;SDS011;70631;50.436;7.826;2024-03-07T04:26:54;22.50;;;11.40;;
81154;SDS011;70631;50.436;7.826;2024-03-07T04:31:45;23.73;;;11.07;;
81154;SDS011;70631;50.436;7.826;2024-03-07T04:36:35;20.23;;;10.33;;
81154;SDS011;70631;50.436;7.826;2024-03-07T04:41:29;18.02;;;9.00;;
81154;SDS011;70631;50.436;7.826;2024-03-07T04:46:19;24.03;;;10.20;;
81154;SDS011;70631;50.436;7.826;2024-03-07T04:51:10;23.87;;;11.30;;
81154;SDS011;70631;50.436;7.826;2024-03-07T04:56:03;23.13;;;10.63;;
81154;SDS011;70631;50.436;7.826;2024-03-07T05:00:54;23.73;;;11.57;;
81154;SDS011;70631;50.436;7.826;2024-03-07T05:05:45;26.30;;;10.57;;
81154;SDS011;70631;50.436;7.826;2024-03-07T05:10:35;25.43;;;9.83;;
81154;SDS011;70631;50.436;7.826;2024-03-07T05:15:26;24.07;;;11.40;;
81154;SDS011;70631;50.436;7.826;2024-03-07T05:20:17;27.45;;;10.73;;
81154;SDS011;70631;50.436;7.826;2024-03-07T05:25:17;23.23;;;10.45;;
81154;SDS011;70631;50.436;7.826;2024-03-07T05:27:43;23.33;;;11.45;;
81154;SDS011;70631;50.436;7.826;2024-03-07T05:30:09;21.63;;;10.90;;
81154;SDS011;70631;50.436;7.826;2024-03-07T05:32:36;24.70;;;11.18;;
81154;SDS011;70631;50.436;7.826;2024-03-07T05:37:27;22.00;;;11.05;;
81154;SDS011;70631;50.436;7.826;2024-03-07T05:42:18;29.43;;;12.97;;
81154;SDS011;70631;50.436;7.826;2024-03-07T05:47:09;26.45;;;13.02;;
81154;SDS011;70631;50.436;7.826;2024-03-07T05:52:01;28.23;;;13.88;;
81154;SDS011;70631;50.436;7.826;2024-03-07T05:56:54;27.88;;;12.98;;
81154;SDS011;70631;50.436;7.826;2024-03-07T06:01:45;28.08;;;13.13;;
81154;SDS011;70631;50.436;7.826;2024-03-07T06:06:36;27.63;;;13.67;;
81154;SDS011;70631;50.436;7.826;2024-03-07T06:09:05;26.15;;;13.20;;
81154;SDS011;70631;50.436;7.826;2024-03-07T06:11:41;31.85;;;15.20;;
81154;SDS011;70631;50.436;7.826;2024-03-07T06:14:09;28.90;;;14.90;;
81154;SDS011;70631;50.436;7.826;2024-03-07T06:16:38;28.60;;;14.27;;
81154;SDS011;70631;50.436;7.826;2024-03-07T06:19:04;29.23;;;12.85;;
81154;SDS011;70631;50.436;7.826;2024-03-07T06:21:33;30.60;;;13.82;;
81154;SDS011;70631;50.436;7.826;2024-03-07T06:24:00;24.48;;;12.80;;
81154;SDS011;70631;50.436;7.826;2024-03-07T06:26:27;26.85;;;13.55;;
81154;SDS011;70631;50.436;7.826;2024-03-07T06:29:14;31.55;;;13.73;;
81154;SDS011;70631;50.436;7.826;2024-03-07T06:31:44;22.00;;;12.48;;
81154;SDS011;70631;50.436;7.826;2024-03-07T06:34:11;29.83;;;12.95;;
81154;SDS011;70631;50.436;7.826;2024-03-07T06:36:37;24.05;;;12.77;;
81154;SDS011;70631;50.436;7.826;2024-03-07T06:39:03;32.90;;;14.00;;
81154;SDS011;70631;50.436;7.826;2024-03-07T06:41:31;27.73;;;12.88;;
81154;SDS011;70631;50.436;7.826;2024-03-07T06:43:59;26.85;;;14.13;;
81154;SDS011;70631;50.436;7.826;2024-03-07T06:46:25;29.10;;;14.88;;
81154;SDS011;70631;50.436;7.826;2024-03-07T06:48:50;33.30;;;15.80;;
81154;SDS011;70631;50.436;7.826;2024-03-07T06:53:42;29.13;;;13.30;;
81154;SDS011;70631;50.436;7.826;2024-03-07T06:56:08;24.20;;;14.25;;
81154;SDS011;70631;50.436;7.826;2024-03-07T07:00:59;26.23;;;13.00;;
81154;SDS011;70631;50.436;7.826;2024-03-07T07:03:25;25.52;;;13.00;;
81154;SDS011;70631;50.436;7.826;2024-03-07T07:05:53;25.77;;;14.38;;
81154;SDS011;70631;50.436;7.826;2024-03-07T07:08:19;26.85;;;14.45;;
81154;SDS011;70631;50.436;7.826;2024-03-07T07:10:44;29.77;;;14.47;;
81154;SDS011;70631;50.436;7.826;2024-03-07T07:13:09;25.23;;;13.90;;
81154;SDS011;70631;50.436;7.826;2024-03-07T07:15:35;30.17;;;15.93;;
81154;SDS011;70631;50.436;7.826;2024-03-07T07:18:01;24.88;;;13.82;;
81154;SDS011;70631;50.436;7.826;2024-03-07T07:20:27;23.13;;;13.70;;
81154;SDS011;70631;50.436;7.826;2024-03-07T07:22:53;26.40;;;13.90;;
81154;SDS011;70631;50.436;7.826;2024-03-07T07:25:18;24.03;;;12.93;;
81154;SDS011;70631;50.436;7.826;2024-03-07T07:27:46;24.05;;;13.57;;
81154;SDS011;70631;50.436;7.826;2024-03-07T07:30:13;26.80;;;14.95;;
81154;SDS011;70631;50.436;7.826;2024-03-07T07:32:40;22.67;;;13.18;;
81154;SDS011;70631;50.436;7.826;2024-03-07T07:35:07;26.80;;;12.98;;
81154;SDS011;70631;50.436;7.826;2024-03-07T07:37:37;24.60;;;13.63;;
81154;SDS011;70631;50.436;7.826;2024-03-07T07:40:03;26.48;;;13.23;;
81154;SDS011;70631;50.436;7.826;2024-03-07T07:42:28;19.15;;;12.00;;
81154;SDS011;70631;50.436;7.826;2024-03-07T07:44:54;25.83;;;13.70;;
81154;SDS011;70631;50.436;7.826;2024-03-07T07:47:19;24.30;;;12.57;;
81154;SDS011;70631;50.436;7.826;2024-03-07T07:49:45;22.98;;;12.18;;
81154;SDS011;70631;50.436;7.826;2024-03-07T07:52:10;22.17;;;12.97;;
81154;SDS011;70631;50.436;7.826;2024-03-07T07:54:40;25.52;;;13.27;;
81154;SDS011;70631;50.436;7.826;2024-03-07T07:57:07;22.42;;;10.07;;
81154;SDS011;70631;50.436;7.826;2024-03-07T07:59:33;21.33;;;11.70;;
81154;SDS011;70631;50.436;7.826;2024-03-07T08:01:58;24.20;;;11.87;;
81154;SDS011;70631;50.436;7.826;2024-03-07T08:04:23;17.20;;;9.63;;
81154;SDS011;70631;50.436;7.826;2024-03-07T08:06:48;23.00;;;13.50;;
81154;SDS011;70631;50.436;7.826;2024-03-07T08:09:13;21.00;;;10.50;;
81154;SDS011;70631;50.436;7.826;2024-03-07T08:11:41;16.83;;;9.65;;
81154;SDS011;70631;50.436;7.826;2024-03-07T08:14:07;16.08;;;9.32;;
81154;SDS011;70631;50.436;7.826;2024-03-07T08:16:32;22.00;;;11.93;;
81154;SDS011;70631;50.436;7.826;2024-03-07T08:18:57;20.92;;;12.15;;
81154;SDS011;70631;50.436;7.826;2024-03-07T08:21:22;20.40;;;11.17;;
81154;SDS011;70631;50.436;7.826;2024-03-07T08:23:48;17.38;;;9.95;;
81154;SDS011;70631;50.436;7.826;2024-03-07T08:26:13;20.77;;;12.70;;
81154;SDS011;70631;50.436;7.826;2024-03-07T08:28:40;22.48;;;12.35;;
81154;SDS011;70631;50.436;7.826;2024-03-07T08:31:06;17.88;;;12.60;;
81154;SDS011;70631;50.436;7.826;2024-03-07T08:33:31;18.03;;;11.87;;
81154;SDS011;70631;50.436;7.826;2024-03-07T08:35:58;17.38;;;11.55;;
81154;SDS011;70631;50.436;7.826;2024-03-07T08:38:24;16.05;;;11.10;;
81154;SDS011;70631;50.436;7.826;2024-03-07T08:40:49;15.82;;;11.40;;
81154;SDS011;70631;50.436;7.826;2024-03-07T08:43:14;18.87;;;11.80;;
81154;SDS011;70631;50.436;7.826;2024-03-07T08:45:40;16.70;;;11.20;;
81154;SDS011;70631;50.436;7.826;2024-03-07T08:48:06;18.15;;;11.23;;
81154;SDS011;70631;50.436;7.826;2024-03-07T08:50:35;16.88;;;11.43;;
81154;SDS011;70631;50.436;7.826;2024-03-07T08:53:02;19.70;;;12.55;;
81154;SDS011;70631;50.436;7.826;2024-03-07T08:55:29;17.40;;;11.45;;
81154;SDS011;70631;50.436;7.826;2024-03-07T08:57:55;17.08;;;11.35;;
81154;SDS011;70631;50.436;7.826;2024-03-07T09:00:20;19.63;;;11.43;;
81154;SDS011;70631;50.436;7.826;2024-03-07T09:03:07;20.40;;;12.90;;
81154;SDS011;70631;50.436;7.826;2024-03-07T09:05:34;18.92;;;11.32;;
81154;SDS011;70631;50.436;7.826;2024-03-07T09:08:00;17.10;;;10.75;;
81154;SDS011;70631;50.436;7.826;2024-03-07T09:10:25;22.73;;;12.80;;
81154;SDS011;70631;50.436;7.826;2024-03-07T09:12:51;18.27;;;11.50;;
81154;SDS011;70631;50.436;7.826;2024-03-07T09:15:17;16.85;;;11.38;;
81154;SDS011;70631;50.436;7.826;2024-03-07T09:17:44;18.67;;;12.02;;
81154;SDS011;70631;50.436;7.826;2024-03-07T09:20:09;16.20;;;11.32;;
81154;SDS011;70631;50.436;7.826;2024-03-07T09:22:39;17.70;;;11.20;;
81154;SDS011;70631;50.436;7.826;2024-03-07T09:25:05;19.75;;;11.95;;
81154;SDS011;70631;50.436;7.826;2024-03-07T09:27:31;16.20;;;11.13;;
81154;SDS011;70631;50.436;7.826;2024-03-07T09:29:56;19.33;;;12.30;;
81154;SDS011;70631;50.436;7.826;2024-03-07T09:32:22;17.27;;;11.00;;
81154;SDS011;70631;50.436;7.826;2024-03-07T09:34:49;18.98;;;11.70;;
81154;SDS011;70631;50.436;7.826;2024-03-07T09:37:14;19.65;;;11.70;;
81154;SDS011;70631;50.436;7.826;2024-03-07T09:39:40;18.80;;;12.18;;
81154;SDS011;70631;50.436;7.826;2024-03-07T09:42:06;18.60;;;11.90;;
81154;SDS011;70631;50.436;7.826;2024-03-07T09:44:34;18.33;;;11.40;;
81154;SDS011;70631;50.436;7.826;2024-03-07T09:47:01;18.33;;;10.93;;
81154;SDS011;70631;50.436;7.826;2024-03-07T09:49:27;14.70;;;9.10;;
81154;SDS011;70631;50.436;7.826;2024-03-07T09:51:53;19.25;;;13.43;;
81154;SDS011;70631;50.436;7.826;2024-03-07T09:54:22;21.20;;;11.98;;
81154;SDS011;70631;50.436;7.826;2024-03-07T09:56:51;21.85;;;12.63;;
81154;SDS011;70631;50.436;7.826;2024-03-07T09:59:18;17.20;;;11.40;;
81154;SDS011;70631;50.436;7.826;2024-03-07T10:01:47;21.10;;;13.23;;
81154;SDS011;70631;50.436;7.826;2024-03-07T10:04:16;22.00;;;13.00;;
81154;SDS011;70631;50.436;7.826;2024-03-07T10:06:50;18.55;;;11.50;;
81154;SDS011;70631;50.436;7.826;2024-03-07T10:09:18;17.80;;;10.88;;
81154;SDS011;70631;50.436;7.826;2024-03-07T10:11:54;17.50;;;10.07;;
81154;SDS011;70631;50.436;7.826;2024-03-07T10:14:21;19.27;;;11.50;;
81154;SDS011;70631;50.436;7.826;2024-03-07T10:16:46;20.17;;;11.50;;
81154;SDS011;70631;50.436;7.826;2024-03-07T10:19:11;17.77;;;10.97;;
81154;SDS011;70631;50.436;7.826;2024-03-07T10:21:36;17.50;;;11.33;;
81154;SDS011;70631;50.436;7.826;2024-03-07T10:24:08;18.83;;;11.80;;
81154;SDS011;70631;50.436;7.826;2024-03-07T10:26:36;18.95;;;11.52;;
81154;SDS011;70631;50.436;7.826;2024-03-07T10:29:05;19.80;;;12.80;;
81154;SDS011;70631;50.436;7.826;2024-03-07T10:31:34;17.00;;;11.27;;
81154;SDS011;70631;50.436;7.826;2024-03-07T10:34:02;19.13;;;11.35;;
81154;SDS011;70631;50.436;7.826;2024-03-07T10:36:31;15.82;;;10.35;;
81154;SDS011;70631;50.436;7.826;2024-03-07T10:38:58;16.80;;;10.40;;
81154;SDS011;70631;50.436;7.826;2024-03-07T10:41:29;15.85;;;9.52;;
81154;SDS011;70631;50.436;7.826;2024-03-07T10:44:01;12.23;;;7.38;;
81154;SDS011;70631;50.436;7.826;2024-03-07T10:46:29;20.35;;;12.18;;
81154;SDS011;70631;50.436;7.826;2024-03-07T10:48:55;18.02;;;10.95;;
81154;SDS011;70631;50.436;7.826;2024-03-07T10:51:35;21.17;;;11.18;;
81154;SDS011;70631;50.436;7.826;2024-03-07T10:57:20;19.50;;;11.13;;
81154;SDS011;70631;50.436;7.826;2024-03-07T11:00:00;14.52;;;9.65;;
81154;SDS011;70631;50.436;7.826;2024-03-07T11:02:49;15.80;;;10.52;;
81154;SDS011;70631;50.436;7.826;2024-03-07T11:05:18;18.60;;;11.20;;
81154;SDS011;70631;50.436;7.826;2024-03-07T11:07:44;19.73;;;12.52;;
81154;SDS011;70631;50.436;7.826;2024-03-07T11:10:09;17.00;;;10.20;;
81154;SDS011;70631;50.436;7.826;2024-03-07T11:12:36;19.20;;;9.68;;
81154;SDS011;70631;50.436;7.826;2024-03-07T11:15:06;17.02;;;8.43;;
81154;SDS011;70631;50.436;7.826;2024-03-07T11:17:39;16.58;;;10.57;;
81154;SDS011;70631;50.436;7.826;2024-03-07T11:20:23;17.75;;;9.98;;
81154;SDS011;70631;50.436;7.826;2024-03-07T11:22:50;17.88;;;9.57;;
81154;SDS011;70631;50.436;7.826;2024-03-07T11:25:19;14.93;;;8.98;;
81154;SDS011;70631;50.436;7.826;2024-03-07T11:27:50;17.80;;;11.07;;
81154;SDS011;70631;50.436;7.826;2024-03-07T11:30:25;16.85;;;10.43;;
81154;SDS011;70631;50.436;7.826;2024-03-07T11:32:51;15.65;;;10.43;;
81154;SDS011;70631;50.436;7.826;2024-03-07T11:38:00;16.42;;;9.98;;
81154;SDS011;70631;50.436;7.826;2024-03-07T11:42:54;18.73;;;10.75;;
81154;SDS011;70631;50.436;7.826;2024-03-07T11:45:21;15.10;;;8.55;;
81154;SDS011;70631;50.436;7.826;2024-03-07T11:47:53;18.33;;;11.85;;
81154;SDS011;70631;50.436;7.826;2024-03-07T11:50:25;18.23;;;11.13;;
81154;SDS011;70631;50.436;7.826;2024-03-07T11:52:53;19.45;;;10.45;;
81154;SDS011;70631;50.436;7.826;2024-03-07T11:55:19;19.38;;;11.15;;
81154;SDS011;70631;50.436;7.826;2024-03-07T11:57:46;14.55;;;8.30;;
81154;SDS011;70631;50.436;7.826;2024-03-07T12:00:12;18.20;;;9.60;;
81154;SDS011;70631;50.436;7.826;2024-03-07T12:02:40;15.63;;;10.90;;
81154;SDS011;70631;50.436;7.826;2024-03-07T12:05:06;16.05;;;9.80;;
81154;SDS011;70631;50.436;7.826;2024-03-07T12:07:32;17.70;;;9.73;;
81154;SDS011;70631;50.436;7.826;2024-03-07T12:09:58;17.42;;;10.30;;
81154;SDS011;70631;50.436;7.826;2024-03-07T12:12:25;17.58;;;10.75;;
81154;SDS011;70631;50.436;7.826;2024-03-07T12:14:52;18.92;;;10.50;;
81154;SDS011;70631;50.436;7.826;2024-03-07T12:17:19;18.38;;;10.43;;
81154;SDS011;70631;50.436;7.826;2024-03-07T12:19:45;15.20;;;10.07;;
81154;SDS011;70631;50.436;7.826;2024-03-07T12:22:11;16.40;;;9.02;;
81154;SDS011;70631;50.436;7.826;2024-03-07T12:24:38;20.23;;;10.82;;
81154;SDS011;70631;50.436;7.826;2024-03-07T12:27:06;18.70;;;10.30;;
81154;SDS011;70631;50.436;7.826;2024-03-07T12:29:35;20.45;;;11.63;;
81154;SDS011;70631;50.436;7.826;2024-03-07T12:32:05;18.90;;;10.88;;
81154;SDS011;70631;50.436;7.826;2024-03-07T12:34:33;14.40;;;9.00;;
81154;SDS011;70631;50.436;7.826;2024-03-07T12:37:02;17.38;;;10.32;;
81154;SDS011;70631;50.436;7.826;2024-03-07T12:39:31;16.13;;;10.18;;
81154;SDS011;70631;50.436;7.826;2024-03-07T12:42:00;15.18;;;9.35;;
81154;SDS011;70631;50.436;7.826;2024-03-07T12:44:27;24.20;;;12.48;;
81154;SDS011;70631;50.436;7.826;2024-03-07T12:46:53;19.85;;;10.00;;
81154;SDS011;70631;50.436;7.826;2024-03-07T12:49:21;17.23;;;10.45;;
81154;SDS011;70631;50.436;7.826;2024-03-07T12:51:50;17.30;;;9.65;;
81154;SDS011;70631;50.436;7.826;2024-03-07T12:54:15;18.88;;;10.15;;
81154;SDS011;70631;50.436;7.826;2024-03-07T12:56:40;14.27;;;9.27;;
81154;SDS011;70631;50.436;7.826;2024-03-07T12:59:06;17.50;;;9.50;;
81154;SDS011;70631;50.436;7.826;2024-03-07T13:01:34;17.75;;;10.05;;
81154;SDS011;70631;50.436;7.826;2024-03-07T13:04:03;19.40;;;11.10;;
81154;SDS011;70631;50.436;7.826;2024-03-07T13:06:29;15.57;;;10.05;;
81154;SDS011;70631;50.436;7.826;2024-03-07T13:08:57;17.73;;;9.50;;
81154;SDS011;70631;50.436;7.826;2024-03-07T13:11:23;12.35;;;8.13;;
81154;SDS011;70631;50.436;7.826;2024-03-07T13:13:48;17.75;;;9.30;;
81154;SDS011;70631;50.436;7.826;2024-03-07T13:16:14;12.35;;;7.72;;
81154;SDS011;70631;50.436;7.826;2024-03-07T13:18:39;22.58;;;9.65;;
81154;SDS011;70631;50.436;7.826;2024-03-07T13:21:05;16.15;;;8.75;;
81154;SDS011;70631;50.436;7.826;2024-03-07T13:23:31;14.95;;;9.60;;
81154;SDS011;70631;50.436;7.826;2024-03-07T13:26:01;17.35;;;8.82;;
81154;SDS011;70631;50.436;7.826;2024-03-07T13:28:27;15.02;;;8.73;;
81154;SDS011;70631;50.436;7.826;2024-03-07T13:30:54;15.68;;;9.68;;
81154;SDS011;70631;50.436;7.826;2024-03-07T13:33:20;16.70;;;9.63;;
81154;SDS011;70631;50.436;7.826;2024-03-07T13:35:45;17.05;;;9.93;;
81154;SDS011;70631;50.436;7.826;2024-03-07T13:38:10;17.03;;;9.27;;
81154;SDS011;70631;50.436;7.826;2024-03-07T13:40:37;16.48;;;10.05;;
81154;SDS011;70631;50.436;7.826;2024-03-07T13:43:03;16.85;;;10.32;;
81154;SDS011;70631;50.436;7.826;2024-03-07T13:45:30;16.23;;;10.15;;
81154;SDS011;70631;50.436;7.826;2024-03-07T13:48:01;16.42;;;9.65;;
81154;SDS011;70631;50.436;7.826;2024-03-07T13:50:30;16.42;;;9.50;;
81154;SDS011;70631;50.436;7.826;2024-03-07T13:52:56;15.77;;;8.65;;
81154;SDS011;70631;50.436;7.826;2024-03-07T13:55:48;14.85;;;9.60;;
81154;SDS011;70631;50.436;7.826;2024-03-07T14:01:09;18.40;;;9.13;;
81154;SDS011;70631;50.436;7.826;2024-03-07T14:03:59;17.85;;;9.57;;
81154;SDS011;70631;50.436;7.826;2024-03-07T14:26:38;13.38;;;8.85;;
81154;SDS011;70631;50.436;7.826;2024-03-07T14:29:27;15.55;;;8.18;;
81154;SDS011;70631;50.436;7.826;2024-03-07T14:32:03;17.27;;;8.85;;
81154;SDS011;70631;50.436;7.826;2024-03-07T14:34:35;14.05;;;8.75;;
81154;SDS011;70631;50.436;7.826;2024-03-07T14:40:10;12.75;;;8.13;;
81154;SDS011;70631;50.436;7.826;2024-03-07T14:42:41;15.13;;;7.88;;
81154;SDS011;70631;50.436;7.826;2024-03-07T14:45:11;13.68;;;8.07;;
81154;SDS011;70631;50.436;7.826;2024-03-07T14:47:38;16.40;;;8.32;;
81154;SDS011;70631;50.436;7.826;2024-03-07T14:50:03;13.43;;;8.20;;
81154;SDS011;70631;50.436;7.826;2024-03-07T14:52:29;14.63;;;8.52;;
81154;SDS011;70631;50.436;7.826;2024-03-07T14:54:55;12.45;;;8.85;;
81154;SDS011;70631;50.436;7.826;2024-03-07T14:57:20;13.27;;;7.70;;
81154;SDS011;70631;50.436;7.826;2024-03-07T14:59:45;13.30;;;8.13;;
81154;SDS011;70631;50.436;7.826;2024-03-07T15:02:11;14.45;;;8.02;;
81154;SDS011;70631;50.436;7.826;2024-03-07T15:04:39;13.73;;;7.93;;
81154;SDS011;70631;50.436;7.826;2024-03-07T15:07:06;13.57;;;8.15;;
81154;SDS011;70631;50.436;7.826;2024-03-07T15:09:34;9.98;;;6.13;;
81154;SDS011;70631;50.436;7.826;2024-03-07T15:12:00;12.25;;;7.45;;
81154;SDS011;70631;50.436;7.826;2024-03-07T15:14:25;13.20;;;7.57;;
81154;SDS011;70631;50.436;7.826;2024-03-07T15:16:50;13.67;;;7.57;;
81154;SDS011;70631;50.436;7.826;2024-03-07T15:19:15;12.13;;;7.27;;
81154;SDS011;70631;50.436;7.826;2024-03-07T15:21:41;12.27;;;7.57;;
81154;SDS011;70631;50.436;7.826;2024-03-07T15:24:06;11.52;;;7.15;;
81154;SDS011;70631;50.436;7.826;2024-03-07T15:26:32;14.10;;;8.38;;
81154;SDS011;70631;50.436;7.826;2024-03-07T15:28:58;15.35;;;7.88;;
81154;SDS011;70631;50.436;7.826;2024-03-07T15:31:27;12.70;;;7.78;;
81154;SDS011;70631;50.436;7.826;2024-03-07T15:33:52;11.90;;;7.32;;
81154;SDS011;70631;50.436;7.826;2024-03-07T15:36:18;11.38;;;6.43;;
81154;SDS011;70631;50.436;7.826;2024-03-07T15:38:46;14.85;;;8.48;;
81154;SDS011;70631;50.436;7.826;2024-03-07T15:41:12;12.82;;;7.55;;
81154;SDS011;70631;50.436;7.826;2024-03-07T15:43:37;11.23;;;6.55;;
81154;SDS011;70631;50.436;7.826;2024-03-07T15:46:03;15.13;;;8.13;;
81154;SDS011;70631;50.436;7.826;2024-03-07T15:48:29;12.73;;;7.10;;
81154;SDS011;70631;50.436;7.826;2024-03-07T15:50:55;15.68;;;9.13;;
81154;SDS011;70631;50.436;7.826;2024-03-07T15:53:22;13.90;;;7.68;;
81154;SDS011;70631;50.436;7.826;2024-03-07T15:55:48;11.18;;;6.88;;
81154;SDS011;70631;50.436;7.826;2024-03-07T15:58:14;14.38;;;7.65;;
81154;SDS011;70631;50.436;7.826;2024-03-07T16:00:42;12.85;;;6.70;;
81154;SDS011;70631;50.436;7.826;2024-03-07T16:03:11;17.52;;;7.90;;
81154;SDS011;70631;50.436;7.826;2024-03-07T16:05:37;17.40;;;8.20;;
81154;SDS011;70631;50.436;7.826;2024-03-07T16:08:04;14.35;;;7.88;;
81154;SDS011;70631;50.436;7.826;2024-03-07T16:10:31;16.85;;;8.57;;
81154;SDS011;70631;50.436;7.826;2024-03-07T16:13:05;13.93;;;7.80;;
81154;SDS011;70631;50.436;7.826;2024-03-07T16:15:32;14.85;;;8.50;;
81154;SDS011;70631;50.436;7.826;2024-03-07T16:17:58;14.45;;;7.70;;
81154;SDS011;70631;50.436;7.826;2024-03-07T16:20:27;16.45;;;8.55;;
81154;SDS011;70631;50.436;7.826;2024-03-07T16:22:54;14.00;;;7.88;;
81154;SDS011;70631;50.436;7.826;2024-03-07T16:25:20;14.05;;;8.05;;
81154;SDS011;70631;50.436;7.826;2024-03-07T16:27:46;14.82;;;8.00;;
81154;SDS011;70631;50.436;7.826;2024-03-07T16:30:13;18.55;;;9.27;;
81154;SDS011;70631;50.436;7.826;2024-03-07T16:32:39;15.45;;;7.95;;
81154;SDS011;70631;50.436;7.826;2024-03-07T16:35:06;11.98;;;7.03;;
81154;SDS011;70631;50.436;7.826;2024-03-07T16:40:09;16.30;;;7.50;;
81154;SDS011;70631;50.436;7.826;2024-03-07T16:42:40;15.60;;;7.97;;
81154;SDS011;70631;50.436;7.826;2024-03-07T16:45:08;14.02;;;7.95;;
81154;SDS011;70631;50.436;7.826;2024-03-07T16:47:41;13.13;;;7.78;;
81154;SDS011;70631;50.436;7.826;2024-03-07T16:50:09;15.25;;;8.27;;
81154;SDS011;70631;50.436;7.826;2024-03-07T16:52:39;14.60;;;7.10;;
81154;SDS011;70631;50.436;7.826;2024-03-07T16:55:06;14.57;;;8.02;;
81154;SDS011;70631;50.436;7.826;2024-03-07T16:57:36;16.27;;;8.20;;
81154;SDS011;70631;50.436;7.826;2024-03-07T17:00:02;14.13;;;7.28;;
81154;SDS011;70631;50.436;7.826;2024-03-07T17:02:31;12.65;;;8.15;;
81154;SDS011;70631;50.436;7.826;2024-03-07T17:04:56;15.27;;;7.90;;
81154;SDS011;70631;50.436;7.826;2024-03-07T17:07:23;14.85;;;8.10;;
81154;SDS011;70631;50.436;7.826;2024-03-07T17:09:49;16.70;;;9.43;;
81154;SDS011;70631;50.436;7.826;2024-03-07T17:12:15;16.27;;;8.40;;
81154;SDS011;70631;50.436;7.826;2024-03-07T17:14:40;15.73;;;7.50;;
81154;SDS011;70631;50.436;7.826;2024-03-07T17:17:08;14.38;;;7.93;;
81154;SDS011;70631;50.436;7.826;2024-03-07T17:19:38;16.52;;;8.18;;